sensor_id;sensor_type;location;lat;lon;timestamp;P1;durP1;ratioP1;P2;durP2;ratioP2
65130;SDS011;51709;54.912;8.316;2023-01-28T00:04:32;11.02;;;4.68;;
65130;SDS011;51709;54.912;8.316;2023-01-28T00:09:52;9.20;;;5.35;;
65130;SDS011;51709;54.912;8.316;2023-01-28T00:15:13;8.55;;;3.80;;
65130;SDS011;51709;54.912;8.316;2023-01-28T00:20:34;7.85;;;5.13;;
65130;SDS011;51709;54.912;8.316;2023-01-28T00:25:59;12.05;;;4.55;;
65130;SDS011;51709;54.912;8.316;2023-01-28T00:31:22;8.68;;;5.35;;
65130;SDS011;51709;54.912;8.316;2023-01-28T00:42:13;10.35;;;4.22;;
65130;SDS011;51709;54.912;8.316;2023-01-28T00:47:34;10.25;;;4.53;;
65130;SDS011;51709;54.912;8.316;2023-01-28T00:52:55;9.02;;;4.82;;
65130;SDS011;51709;54.912;8.316;2023-01-28T00:58:17;11.88;;;5.68;;
65130;SDS011;51709;54.912;8.316;2023-01-28T01:03:38;10.93;;;4.57;;
65130;SDS011;51709;54.912;8.316;2023-01-28T01:08:59;6.55;;;4.22;;
65130;SDS011;51709;54.912;8.316;2023-01-28T01:14:19;12.70;;;6.20;;
65130;SDS011;51709;54.912;8.316;2023-01-28T01:19:40;13.15;;;5.50;;
65130;SDS011;51709;54.912;8.316;2023-01-28T01:25:02;12.15;;;5.32;;
65130;SDS011;51709;54.912;8.316;2023-01-28T01:30:24;13.52;;;4.13;;
65130;SDS011;51709;54.912;8.316;2023-01-28T01:35:51;7.03;;;4.20;;
65130;SDS011;51709;54.912;8.316;2023-01-28T01:41:24;9.00;;;4.00;;
65130;SDS011;51709;54.912;8.316;2023-01-28T01:46:49;10.10;;;5.35;;
65130;SDS011;51709;54.912;8.316;2023-01-28T01:52:12;8.98;;;4.88;;
65130;SDS011;51709;54.912;8.316;2023-01-28T01:57:36;10.02;;;4.30;;
65130;SDS011;51709;54.912;8.316;2023-01-28T02:02:58;11.25;;;6.10;;
65130;SDS011;51709;54.912;8.316;2023-01-28T02:08:19;9.25;;;4.93;;
65130;SDS011;51709;54.912;8.316;2023-01-28T02:13:44;9.18;;;4.80;;
65130;SDS011;51709;54.912;8.316;2023-01-28T02:19:08;7.82;;;4.15;;
65130;SDS011;51709;54.912;8.316;2023-01-28T02:24:40;11.40;;;4.65;;
65130;SDS011;51709;54.912;8.316;2023-01-28T02:30:21;12.50;;;5.10;;
65130;SDS011;51709;54.912;8.316;2023-01-28T02:35:48;8.93;;;4.97;;
65130;SDS011;51709;54.912;8.316;2023-01-28T02:41:17;11.35;;;4.22;;
65130;SDS011;51709;54.912;8.316;2023-01-28T02:46:44;11.52;;;3.38;;
65130;SDS011;51709;54.912;8.316;2023-01-28T02:58:20;9.43;;;4.47;;
65130;SDS011;51709;54.912;8.316;2023-01-28T03:09:21;6.35;;;3.88;;
65130;SDS011;51709;54.912;8.316;2023-01-28T03:14:51;8.38;;;3.90;;
65130;SDS011;51709;54.912;8.316;2023-01-28T03:20:46;10.30;;;3.95;;
65130;SDS011;51709;54.912;8.316;2023-01-28T03:26:27;6.30;;;3.67;;
65130;SDS011;51709;54.912;8.316;2023-01-28T03:32:10;7.38;;;3.78;;
65130;SDS011;51709;54.912;8.316;2023-01-28T03:37:50;11.40;;;3.47;;
65130;SDS011;51709;54.912;8.316;2023-01-28T03:43:15;5.50;;;3.28;;
65130;SDS011;51709;54.912;8.316;2023-01-28T03:48:39;5.67;;;3.00;;
65130;SDS011;51709;54.912;8.316;2023-01-28T03:54:02;5.45;;;2.80;;
65130;SDS011;51709;54.912;8.316;2023-01-28T03:59:24;5.95;;;2.92;;
65130;SDS011;51709;54.912;8.316;2023-01-28T04:04:45;6.10;;;3.22;;
65130;SDS011;51709;54.912;8.316;2023-01-28T04:10:07;6.80;;;3.17;;
65130;SDS011;51709;54.912;8.316;2023-01-28T04:15:50;6.10;;;2.42;;
65130;SDS011;51709;54.912;8.316;2023-01-28T04:21:12;13.82;;;3.08;;
65130;SDS011;51709;54.912;8.316;2023-01-28T04:26:32;7.28;;;1.55;;
65130;SDS011;51709;54.912;8.316;2023-01-28T04:31:53;5.88;;;1.50;;
65130;SDS011;51709;54.912;8.316;2023-01-28T04:37:49;2.20;;;1.30;;
65130;SDS011;51709;54.912;8.316;2023-01-28T04:43:24;6.55;;;1.77;;
65130;SDS011;51709;54.912;8.316;2023-01-28T04:49:06;6.53;;;1.73;;
65130;SDS011;51709;54.912;8.316;2023-01-28T04:54:34;5.72;;;1.45;;
65130;SDS011;51709;54.912;8.316;2023-01-28T04:59:57;4.50;;;1.42;;
65130;SDS011;51709;54.912;8.316;2023-01-28T05:05:17;4.85;;;1.60;;
65130;SDS011;51709;54.912;8.316;2023-01-28T05:10:51;2.80;;;1.35;;
65130;SDS011;51709;54.912;8.316;2023-01-28T05:16:11;7.50;;;1.08;;
65130;SDS011;51709;54.912;8.316;2023-01-28T05:21:32;4.05;;;1.38;;
65130;SDS011;51709;54.912;8.316;2023-01-28T05:26:57;2.28;;;1.05;;
65130;SDS011;51709;54.912;8.316;2023-01-28T05:32:17;4.53;;;1.08;;
65130;SDS011;51709;54.912;8.316;2023-01-28T05:37:38;4.65;;;1.17;;
65130;SDS011;51709;54.912;8.316;2023-01-28T05:42:59;1.10;;;0.63;;
65130;SDS011;51709;54.912;8.316;2023-01-28T05:48:40;2.83;;;0.68;;
65130;SDS011;51709;54.912;8.316;2023-01-28T05:54:01;4.63;;;0.75;;
65130;SDS011;51709;54.912;8.316;2023-01-28T05:59:23;3.25;;;0.60;;
65130;SDS011;51709;54.912;8.316;2023-01-28T06:04:47;2.40;;;0.63;;
65130;SDS011;51709;54.912;8.316;2023-01-28T06:10:09;2.40;;;0.68;;
65130;SDS011;51709;54.912;8.316;2023-01-28T06:15:31;9.40;;;1.77;;
65130;SDS011;51709;54.912;8.316;2023-01-28T06:21:11;4.68;;;0.95;;
65130;SDS011;51709;54.912;8.316;2023-01-28T06:26:31;12.35;;;1.10;;
65130;SDS011;51709;54.912;8.316;2023-01-28T06:31:52;8.15;;;1.35;;
65130;SDS011;51709;54.912;8.316;2023-01-28T06:37:13;4.57;;;1.67;;
65130;SDS011;51709;54.912;8.316;2023-01-28T06:42:34;0.50;;;0.25;;
65130;SDS011;51709;54.912;8.316;2023-01-28T06:47:55;2.95;;;0.95;;
65130;SDS011;51709;54.912;8.316;2023-01-28T06:53:16;2.10;;;1.50;;
65130;SDS011;51709;54.912;8.316;2023-01-28T06:58:38;2.30;;;0.50;;
65130;SDS011;51709;54.912;8.316;2023-01-28T07:03:59;1.10;;;0.70;;
65130;SDS011;51709;54.912;8.316;2023-01-28T07:09:20;1.58;;;0.60;;
65130;SDS011;51709;54.912;8.316;2023-01-28T07:14:41;0.50;;;0.50;;
65130;SDS011;51709;54.912;8.316;2023-01-28T07:20:01;4.30;;;0.88;;
65130;SDS011;51709;54.912;8.316;2023-01-28T07:25:22;0.45;;;0.45;;
65130;SDS011;51709;54.912;8.316;2023-01-28T07:30:42;0.35;;;0.25;;
65130;SDS011;51709;54.912;8.316;2023-01-28T07:36:03;1.88;;;0.43;;
65130;SDS011;51709;54.912;8.316;2023-01-28T07:41:24;4.15;;;0.55;;
65130;SDS011;51709;54.912;8.316;2023-01-28T07:46:45;5.95;;;0.73;;
65130;SDS011;51709;54.912;8.316;2023-01-28T07:52:06;2.40;;;0.50;;
65130;SDS011;51709;54.912;8.316;2023-01-28T07:57:30;4.65;;;0.73;;
65130;SDS011;51709;54.912;8.316;2023-01-28T08:02:55;7.68;;;0.45;;
65130;SDS011;51709;54.912;8.316;2023-01-28T08:08:17;0.32;;;0.32;;
65130;SDS011;51709;54.912;8.316;2023-01-28T08:13:38;0.68;;;0.40;;
65130;SDS011;51709;54.912;8.316;2023-01-28T08:18:58;1.38;;;0.75;;
65130;SDS011;51709;54.912;8.316;2023-01-28T08:24:19;3.50;;;0.60;;
65130;SDS011;51709;54.912;8.316;2023-01-28T08:29:40;1.67;;;0.50;;
65130;SDS011;51709;54.912;8.316;2023-01-28T08:35:01;1.98;;;0.65;;
65130;SDS011;51709;54.912;8.316;2023-01-28T08:40:23;2.22;;;0.80;;
65130;SDS011;51709;54.912;8.316;2023-01-28T08:53:36;1.45;;;0.52;;
65130;SDS011;51709;54.912;8.316;2023-01-28T08:58:56;7.50;;;0.98;;
65130;SDS011;51709;54.912;8.316;2023-01-28T09:04:17;2.58;;;0.98;;
65130;SDS011;51709;54.912;8.316;2023-01-28T09:09:38;7.38;;;1.20;;
65130;SDS011;51709;54.912;8.316;2023-01-28T09:14:59;5.40;;;0.45;;
65130;SDS011;51709;54.912;8.316;2023-01-28T09:28:05;13.93;;;0.93;;
65130;SDS011;51709;54.912;8.316;2023-01-28T09:33:26;7.50;;;1.50;;
65130;SDS011;51709;54.912;8.316;2023-01-28T09:38:47;7.28;;;1.40;;
65130;SDS011;51709;54.912;8.316;2023-01-28T09:49:45;9.20;;;1.65;;
65130;SDS011;51709;54.912;8.316;2023-01-28T09:55:17;6.15;;;1.00;;
65130;SDS011;51709;54.912;8.316;2023-01-28T10:17:49;6.78;;;1.23;;
65130;SDS011;51709;54.912;8.316;2023-01-28T10:23:35;4.93;;;1.27;;
65130;SDS011;51709;54.912;8.316;2023-01-28T10:29:08;9.23;;;0.90;;
65130;SDS011;51709;54.912;8.316;2023-01-28T10:34:33;3.63;;;0.55;;
65130;SDS011;51709;54.912;8.316;2023-01-28T10:39:55;5.43;;;1.02;;
65130;SDS011;51709;54.912;8.316;2023-01-28T10:45:28;3.42;;;0.70;;
65130;SDS011;51709;54.912;8.316;2023-01-28T10:53:04;4.13;;;1.05;;
65130;SDS011;51709;54.912;8.316;2023-01-28T10:59:39;2.92;;;1.13;;
65130;SDS011;51709;54.912;8.316;2023-01-28T11:10:56;6.30;;;0.88;;
65130;SDS011;51709;54.912;8.316;2023-01-28T11:16:17;6.53;;;0.90;;
65130;SDS011;51709;54.912;8.316;2023-01-28T11:21:39;8.32;;;1.08;;
65130;SDS011;51709;54.912;8.316;2023-01-28T11:27:10;7.10;;;0.95;;
65130;SDS011;51709;54.912;8.316;2023-01-28T11:32:36;7.50;;;0.80;;
65130;SDS011;51709;54.912;8.316;2023-01-28T11:37:57;4.45;;;1.30;;
65130;SDS011;51709;54.912;8.316;2023-01-28T11:43:19;7.22;;;1.05;;
65130;SDS011;51709;54.912;8.316;2023-01-28T11:54:45;5.57;;;1.00;;
65130;SDS011;51709;54.912;8.316;2023-01-28T12:00:37;3.10;;;1.10;;
65130;SDS011;51709;54.912;8.316;2023-01-28T12:06:38;6.13;;;1.25;;
65130;SDS011;51709;54.912;8.316;2023-01-28T12:12:14;7.32;;;1.70;;
65130;SDS011;51709;54.912;8.316;2023-01-28T12:29:39;4.50;;;0.90;;
65130;SDS011;51709;54.912;8.316;2023-01-28T12:52:12;4.80;;;0.98;;
65130;SDS011;51709;54.912;8.316;2023-01-28T12:57:38;8.35;;;1.65;;
65130;SDS011;51709;54.912;8.316;2023-01-28T13:03:07;4.63;;;1.20;;
65130;SDS011;51709;54.912;8.316;2023-01-28T13:08:34;8.55;;;1.88;;
65130;SDS011;51709;54.912;8.316;2023-01-28T13:13:55;13.95;;;1.58;;
65130;SDS011;51709;54.912;8.316;2023-01-28T13:24:40;1.58;;;0.98;;
65130;SDS011;51709;54.912;8.316;2023-01-28T13:30:02;11.68;;;2.03;;
65130;SDS011;51709;54.912;8.316;2023-01-28T13:35:41;9.32;;;1.60;;
65130;SDS011;51709;54.912;8.316;2023-01-28T13:41:03;8.20;;;1.13;;
65130;SDS011;51709;54.912;8.316;2023-01-28T13:46:26;11.73;;;2.28;;
65130;SDS011;51709;54.912;8.316;2023-01-28T13:51:58;11.63;;;1.15;;
65130;SDS011;51709;54.912;8.316;2023-01-28T14:09:07;12.82;;;2.40;;
65130;SDS011;51709;54.912;8.316;2023-01-28T14:26:09;16.50;;;1.63;;
65130;SDS011;51709;54.912;8.316;2023-01-28T14:31:39;11.88;;;2.28;;
65130;SDS011;51709;54.912;8.316;2023-01-28T14:37:03;13.55;;;1.95;;
65130;SDS011;51709;54.912;8.316;2023-01-28T14:42:31;14.55;;;1.85;;
65130;SDS011;51709;54.912;8.316;2023-01-28T14:59:16;12.40;;;2.88;;
65130;SDS011;51709;54.912;8.316;2023-01-28T15:04:41;15.90;;;2.85;;
65130;SDS011;51709;54.912;8.316;2023-01-28T15:10:02;16.80;;;2.25;;
65130;SDS011;51709;54.912;8.316;2023-01-28T15:15:32;4.80;;;2.05;;
65130;SDS011;51709;54.912;8.316;2023-01-28T15:20:55;14.50;;;1.85;;
65130;SDS011;51709;54.912;8.316;2023-01-28T15:26:19;14.18;;;2.45;;
65130;SDS011;51709;54.912;8.316;2023-01-28T15:31:46;10.27;;;2.37;;
65130;SDS011;51709;54.912;8.316;2023-01-28T15:37:09;12.27;;;2.30;;
65130;SDS011;51709;54.912;8.316;2023-01-28T15:42:30;9.15;;;1.67;;
65130;SDS011;51709;54.912;8.316;2023-01-28T15:47:52;14.50;;;2.63;;
65130;SDS011;51709;54.912;8.316;2023-01-28T15:53:22;15.98;;;2.33;;
65130;SDS011;51709;54.912;8.316;2023-01-28T15:58:42;6.97;;;2.72;;
65130;SDS011;51709;54.912;8.316;2023-01-28T16:04:04;9.10;;;3.30;;
65130;SDS011;51709;54.912;8.316;2023-01-28T16:09:27;13.68;;;1.77;;
65130;SDS011;51709;54.912;8.316;2023-01-28T16:14:50;12.33;;;3.17;;
65130;SDS011;51709;54.912;8.316;2023-01-28T16:20:19;16.55;;;2.60;;
65130;SDS011;51709;54.912;8.316;2023-01-28T16:25:44;12.55;;;2.47;;
65130;SDS011;51709;54.912;8.316;2023-01-28T16:31:05;13.68;;;2.65;;
65130;SDS011;51709;54.912;8.316;2023-01-28T16:36:30;8.30;;;2.03;;
65130;SDS011;51709;54.912;8.316;2023-01-28T16:41:50;7.05;;;2.28;;
65130;SDS011;51709;54.912;8.316;2023-01-28T16:47:11;10.00;;;1.95;;
65130;SDS011;51709;54.912;8.316;2023-01-28T16:52:31;9.82;;;2.55;;
65130;SDS011;51709;54.912;8.316;2023-01-28T16:57:52;21.52;;;2.70;;
65130;SDS011;51709;54.912;8.316;2023-01-28T17:03:15;7.97;;;2.33;;
65130;SDS011;51709;54.912;8.316;2023-01-28T17:08:36;9.85;;;2.15;;
65130;SDS011;51709;54.912;8.316;2023-01-28T17:13:57;7.90;;;1.67;;
65130;SDS011;51709;54.912;8.316;2023-01-28T17:19:18;6.70;;;1.50;;
65130;SDS011;51709;54.912;8.316;2023-01-28T17:24:39;2.72;;;0.90;;
65130;SDS011;51709;54.912;8.316;2023-01-28T17:30:00;9.25;;;1.67;;
65130;SDS011;51709;54.912;8.316;2023-01-28T17:35:21;11.80;;;1.58;;
65130;SDS011;51709;54.912;8.316;2023-01-28T17:40:41;6.47;;;1.83;;
65130;SDS011;51709;54.912;8.316;2023-01-28T17:46:09;14.07;;;1.88;;
65130;SDS011;51709;54.912;8.316;2023-01-28T17:51:31;7.70;;;1.90;;
65130;SDS011;51709;54.912;8.316;2023-01-28T17:56:52;16.58;;;2.20;;
65130;SDS011;51709;54.912;8.316;2023-01-28T18:02:13;8.80;;;1.50;;
65130;SDS011;51709;54.912;8.316;2023-01-28T18:07:34;9.13;;;1.42;;
65130;SDS011;51709;54.912;8.316;2023-01-28T18:12:55;13.93;;;2.88;;
65130;SDS011;51709;54.912;8.316;2023-01-28T18:18:15;10.32;;;1.77;;
65130;SDS011;51709;54.912;8.316;2023-01-28T18:23:36;9.88;;;2.33;;
65130;SDS011;51709;54.912;8.316;2023-01-28T18:28:57;9.85;;;1.92;;
65130;SDS011;51709;54.912;8.316;2023-01-28T18:34:18;4.32;;;1.00;;
65130;SDS011;51709;54.912;8.316;2023-01-28T18:39:39;10.25;;;1.73;;
65130;SDS011;51709;54.912;8.316;2023-01-28T18:45:02;9.40;;;1.52;;
65130;SDS011;51709;54.912;8.316;2023-01-28T18:50:24;17.50;;;2.55;;
65130;SDS011;51709;54.912;8.316;2023-01-28T18:55:44;10.43;;;2.10;;
65130;SDS011;51709;54.912;8.316;2023-01-28T19:01:09;4.05;;;1.63;;
65130;SDS011;51709;54.912;8.316;2023-01-28T19:06:30;8.25;;;1.13;;
65130;SDS011;51709;54.912;8.316;2023-01-28T19:11:51;9.65;;;2.20;;
65130;SDS011;51709;54.912;8.316;2023-01-28T19:17:11;12.88;;;2.15;;
65130;SDS011;51709;54.912;8.316;2023-01-28T19:22:32;15.15;;;3.65;;
65130;SDS011;51709;54.912;8.316;2023-01-28T19:27:53;22.23;;;3.83;;
65130;SDS011;51709;54.912;8.316;2023-01-28T19:33:14;23.40;;;4.80;;
65130;SDS011;51709;54.912;8.316;2023-01-28T19:38:35;15.60;;;1.98;;
65130;SDS011;51709;54.912;8.316;2023-01-28T19:43:56;9.48;;;2.70;;
65130;SDS011;51709;54.912;8.316;2023-01-28T19:49:17;19.20;;;4.13;;
65130;SDS011;51709;54.912;8.316;2023-01-28T19:54:37;20.27;;;3.20;;
65130;SDS011;51709;54.912;8.316;2023-01-28T19:59:58;9.18;;;1.92;;
65130;SDS011;51709;54.912;8.316;2023-01-28T20:05:19;15.52;;;2.75;;
65130;SDS011;51709;54.912;8.316;2023-01-28T20:10:39;11.95;;;2.15;;
65130;SDS011;51709;54.912;8.316;2023-01-28T20:16:04;17.52;;;2.33;;
65130;SDS011;51709;54.912;8.316;2023-01-28T20:21:29;21.17;;;2.95;;
65130;SDS011;51709;54.912;8.316;2023-01-28T20:26:51;12.75;;;2.10;;
65130;SDS011;51709;54.912;8.316;2023-01-28T20:32:11;19.05;;;2.35;;
65130;SDS011;51709;54.912;8.316;2023-01-28T20:37:38;14.82;;;2.03;;
65130;SDS011;51709;54.912;8.316;2023-01-28T20:42:59;8.68;;;1.98;;
65130;SDS011;51709;54.912;8.316;2023-01-28T20:48:20;11.98;;;3.05;;
65130;SDS011;51709;54.912;8.316;2023-01-28T20:53:41;24.60;;;4.15;;
65130;SDS011;51709;54.912;8.316;2023-01-28T20:59:03;18.77;;;2.42;;
65130;SDS011;51709;54.912;8.316;2023-01-28T21:04:25;9.43;;;1.70;;
65130;SDS011;51709;54.912;8.316;2023-01-28T21:09:45;21.45;;;2.85;;
65130;SDS011;51709;54.912;8.316;2023-01-28T21:15:06;23.20;;;2.33;;
65130;SDS011;51709;54.912;8.316;2023-01-28T21:20:28;8.82;;;1.77;;
65130;SDS011;51709;54.912;8.316;2023-01-28T21:25:50;13.02;;;2.30;;
65130;SDS011;51709;54.912;8.316;2023-01-28T21:31:16;12.18;;;2.55;;
65130;SDS011;51709;54.912;8.316;2023-01-28T21:36:38;9.38;;;1.67;;
65130;SDS011;51709;54.912;8.316;2023-01-28T21:41:59;13.48;;;2.45;;
65130;SDS011;51709;54.912;8.316;2023-01-28T21:47:20;9.98;;;1.52;;
65130;SDS011;51709;54.912;8.316;2023-01-28T21:52:46;18.40;;;2.13;;
65130;SDS011;51709;54.912;8.316;2023-01-28T21:58:07;8.57;;;2.22;;
65130;SDS011;51709;54.912;8.316;2023-01-28T22:03:48;14.25;;;2.33;;
65130;SDS011;51709;54.912;8.316;2023-01-28T22:09:09;5.25;;;2.75;;
65130;SDS011;51709;54.912;8.316;2023-01-28T22:19:54;11.00;;;1.60;;
65130;SDS011;51709;54.912;8.316;2023-01-28T22:25:15;13.30;;;2.40;;
65130;SDS011;51709;54.912;8.316;2023-01-28T22:30:35;8.68;;;2.78;;
65130;SDS011;51709;54.912;8.316;2023-01-28T22:35:56;13.18;;;2.00;;
65130;SDS011;51709;54.912;8.316;2023-01-28T22:41:18;23.75;;;1.98;;
65130;SDS011;51709;54.912;8.316;2023-01-28T22:46:43;7.70;;;1.92;;
65130;SDS011;51709;54.912;8.316;2023-01-28T22:52:04;13.85;;;1.77;;
65130;SDS011;51709;54.912;8.316;2023-01-28T22:57:25;14.43;;;2.00;;
65130;SDS011;51709;54.912;8.316;2023-01-28T23:02:45;21.40;;;1.80;;
65130;SDS011;51709;54.912;8.316;2023-01-28T23:08:06;13.55;;;2.15;;
65130;SDS011;51709;54.912;8.316;2023-01-28T23:13:30;13.32;;;2.20;;
65130;SDS011;51709;54.912;8.316;2023-01-28T23:19:12;14.68;;;2.33;;
65130;SDS011;51709;54.912;8.316;2023-01-28T23:24:51;10.75;;;2.47;;
65130;SDS011;51709;54.912;8.316;2023-01-28T23:30:11;17.83;;;2.63;;
65130;SDS011;51709;54.912;8.316;2023-01-28T23:35:33;16.30;;;2.05;;
65130;SDS011;51709;54.912;8.316;2023-01-28T23:40:54;25.77;;;2.40;;
65130;SDS011;51709;54.912;8.316;2023-01-28T23:46:14;25.38;;;2.67;;
65130;SDS011;51709;54.912;8.316;2023-01-28T23:51:36;12.07;;;2.30;;
65130;SDS011;51709;54.912;8.316;2023-01-28T23:56:56;16.63;;;2.63;;
